Terminal Aerodrome Forecast
Issued by NWS Memphis, TN

Home | Current Version | Previous Version | Text Only | Print | Product List | Glossary On
Versions: 1 2 3 4 5 6 7 8 9 10 11 12 13 14 15 16
673
FTUS44 KMEG 240523
TAFMKL
TAF
KMKL 240523Z 2406/2506 VRB03KT P6SM VCSH SCT060 BKN100
      TEMPO 2408/2412 5SM BR SCT015
     FM241400 23004KT P6SM SCT040 BKN250
     FM250000 VRB02KT P6SM SCT250=

USA.gov is the U.S. government's official web portal to all federal, state and local government web resources and services.